Theologos P . — SZNB — position and weather

sailwx.info

Track history (hours):
 
Tides and Currents Weather Stations Pressure Air Temp Water Temp Dewpoint Dewpoint Depression Visibility Wind Speed Wind Dir Waves Ship Positions

Theologos P .

Last reported at 2017-Aug-20 11:31 UTC. Time now 2017-Aug-20 11:49 UTC.
Position N 37°28' E 025°20'.

Length 118 m; draft 5 m.

Type: Passenger vessel. MMSI: 240521000.

Date/timePositionNaut miles runAvg speedWind from/ knotsBaromVisibWave heightAir tempDewpointWater temp
2017-Aug-20 11:31N 37°28' E 025°20'0 0.0
2017-Aug-20 11:00N 37°28' E 025°20'0 0.0
2017-Aug-20 10:31N 37°28' E 025°20'0 0.0
2017-Aug-20 10:00N 37°28' E 025°20'4 7.1
2017-Aug-20 09:31N 37°29' E 025°15'611.8
2017-Aug-20 09:00N 37°32' E 025°09'815.2
2017-Aug-20 08:30N 37°36' E 025°01'1019.2
2017-Aug-20 08:00N 37°43' E 024°53'3815.1
2017-Aug-20 05:29N 37°60' E 024°09'7 0.6
2017-Aug-19 18:26N 38°01' E 024°01'716.3
2017-Aug-19 17:59N 37°59' E 024°09'3513.2
2017-Aug-19 15:18N 37°45' E 024°51'818.9
2017-Aug-19 14:52N 37°39' E 024°58'1113.1
2017-Aug-19 14:00N 37°32' E 025°09'715.0
2017-Aug-19 13:31N 37°28' E 025°17'2 3.1
2017-Aug-19 13:00N 37°27' E 025°18'917.9
2017-Aug-19 12:31N 37°18' E 025°18'918.4
2017-Aug-19 12:00N 37°09' E 025°21'3 5.8
2017-Aug-19 11:30N 37°06' E 025°22'4 7.9
2017-Aug-19 11:00N 37°10' E 025°21'1019.6
2017-Aug-19 10:30N 37°20' E 025°18'816.4
2017-Aug-19 10:00N 37°28' E 025°20'4 8.7
2017-Aug-19 09:31N 37°29' E 025°14'510.1
2017-Aug-19 09:01N 37°32' E 025°09'917.4
2017-Aug-19 08:31N 37°37' E 025°00'1019.1
2017-Aug-19 08:01N 37°44' E 024°52'3714.9
2017-Aug-19 05:31N 37°60' E 024°10'018.7
2017-Aug-19 05:30N 37°60' E 024°09'7 1.1
2017-Aug-18 23:33N 38°01' E 024°01'0 1.3
2017-Aug-18 23:30N 38°01' E 024°01'915.6
2017-Aug-18 22:58N 37°57' E 024°10'919.2
2017-Aug-18 22:30N 37°53' E 024°20'2518.6
2017-Aug-18 21:10N 37°41' E 024°47'317.8
2017-Aug-18 21:00N 37°39' E 024°50'918.6
2017-Aug-18 20:30N 37°34' E 025°00'918.7
2017-Aug-18 20:01N 37°30' E 025°11'714.4
2017-Aug-18 19:30N 37°28' E 025°19'1 2.7
2017-Aug-18 19:00N 37°28' E 025°18'815.6
2017-Aug-18 18:31N 37°32' E 025°09'611.9
2017-Aug-18 18:00N 37°35' E 025°03'1118.9
2017-Aug-18 17:25N 37°44' E 024°53'3915.5
2017-Aug-18 14:55N 37°60' E 024°09'7 5.1
2017-Aug-18 13:39N 38°01' E 024°01'212.2
2017-Aug-18 13:31N 38°01' E 024°03'1018.4
2017-Aug-18 12:58N 37°56' E 024°14'3118.5
2017-Aug-18 11:18N 37°41' E 024°48'517.8
2017-Aug-18 11:01N 37°39' E 024°54'918.5
2017-Aug-18 10:31N 37°34' E 025°04'5 9.4
2017-Aug-18 10:00N 37°32' E 025°09'611.6
2017-Aug-18 09:30N 37°29' E 025°15'4 7.3
2017-Aug-18 09:01N 37°28' E 025°20'0 1.0
2017-Aug-18 08:30N 37°28' E 025°19'917.6
2017-Aug-18 08:01N 37°32' E 025°09'4 7.7
2017-Aug-18 07:31N 37°34' E 025°05'1018.9
2017-Aug-18 07:00N 37°38' E 024°54'3819.0
2017-Aug-18 05:00N 37°57' E 024°12'10 1.0
2017-Aug-17 18:55N 38°01' E 024°01'615.3
2017-Aug-17 18:30N 37°59' E 024°08'1319.0
2017-Aug-17 17:50N 37°56' E 024°24'2412.7
2017-Aug-17 15:58N 37°45' E 024°51'918.5
2017-Aug-17 15:28N 37°38' E 024°59'818.5
2017-Aug-17 15:00N 37°33' E 025°07'3 6.8
2017-Aug-17 14:30N 37°31' E 025°11'815.2
2017-Aug-17 14:00N 37°28' E 025°19'510.3
2017-Aug-17 13:30N 37°23' E 025°17'918.1
2017-Aug-17 13:00N 37°14' E 025°19'816.3
2017-Aug-17 12:31N 37°06' E 025°22'1 2.7
2017-Aug-17 12:01N 37°07' E 025°21'1019.8
2017-Aug-17 11:30N 37°17' E 025°19'1019.6
2017-Aug-17 11:01N 37°27' E 025°18'1 3.0
2017-Aug-17 10:30N 37°28' E 025°18'815.8
2017-Aug-17 10:00N 37°32' E 025°09'2 3.5
2017-Aug-17 09:31N 37°32' E 025°07'1017.9
2017-Aug-17 08:57N 37°39' E 024°58'4312.5
2017-Aug-17 05:30N 37°59' E 024°10'7 0.6
2017-Aug-16 18:18N 38°01' E 024°01'413.8
2017-Aug-16 18:01N 38°00' E 024°06'1019.0
2017-Aug-16 17:30N 37°57' E 024°18'3013.8
2017-Aug-16 15:20N 37°44' E 024°52'817.7
2017-Aug-16 14:54N 37°39' E 024°58'718.0
2017-Aug-16 14:30N 37°34' E 025°05'4 7.6
2017-Aug-16 14:00N 37°32' E 025°09'917.4
2017-Aug-16 13:31N 37°28' E 025°19'3 5.7
2017-Aug-16 12:55N 37°25' E 025°17'717.8
2017-Aug-16 12:30N 37°17' E 025°18'917.9
2017-Aug-16 12:00N 37°09' E 025°21'3 5.3
2017-Aug-16 11:30N 37°06' E 025°22'5 9.1
2017-Aug-16 11:01N 37°11' E 025°20'1019.4
2017-Aug-16 10:31N 37°20' E 025°18'815.1
2017-Aug-16 10:00N 37°28' E 025°20'5 9.8
2017-Aug-16 09:30N 37°30' E 025°14'4 9.0
2017-Aug-16 09:01N 37°32' E 025°09'918.4
2017-Aug-16 08:30N 37°38' E 024°60'1019.7
2017-Aug-16 08:00N 37°45' E 024°52'3614.9
2017-Aug-16 05:35N 37°59' E 024°10'219.2
2017-Aug-16 05:29N 37°60' E 024°07'5 0.5
2017-Aug-15 18:18N 38°01' E 024°01'415.2
2017-Aug-15 18:00N 38°00' E 024°06'1019.3
2017-Aug-15 17:30N 37°57' E 024°18'2913.1
2017-Aug-15 15:18N 37°45' E 024°51'618.4
2017-Aug-15 14:59N 37°41' E 024°56'918.7
2017-Aug-15 14:30N 37°35' E 025°04'5 9.4
2017-Aug-15 14:00N 37°32' E 025°09'714.8
2017-Aug-15 13:31N 37°28' E 025°17'1 2.2
2017-Aug-15 13:00N 37°27' E 025°18'917.5
2017-Aug-15 12:30N 37°19' E 025°18'918.0
2017-Aug-15 12:00N 37°10' E 025°21'4 7.3
2017-Aug-15 11:30N 37°06' E 025°22'3 6.4
2017-Aug-15 11:00N 37°09' E 025°21'1019.7
2017-Aug-15 10:30N 37°19' E 025°18'917.7
2017-Aug-15 10:00N 37°28' E 025°19'3 5.1
2017-Aug-15 09:31N 37°29' E 025°16'713.0
2017-Aug-15 09:00N 37°32' E 025°09'713.6
2017-Aug-15 08:30N 37°36' E 025°02'1019.3
2017-Aug-15 08:00N 37°43' E 024°54'3715.4
2017-Aug-15 05:36N 37°59' E 024°11'219.2
2017-Aug-15 05:29N 37°60' E 024°09'7 0.6
2017-Aug-14 17:57N 38°01' E 024°01'817.2
2017-Aug-14 17:28N 37°59' E 024°11'0 0.0
2017-Aug-14 14:00N 37°59' E 024°11'9 1.9
2017-Aug-14 09:29N 38°01' E 024°01'715.1
2017-Aug-14 09:00N 37°59' E 024°09'1018.8
2017-Aug-14 08:29N 37°56' E 024°21'2612.6
2017-Aug-14 06:26N 37°45' E 024°51'1018.7
2017-Aug-14 05:54N 37°38' E 024°60'717.7
2017-Aug-14 05:30N 37°33' E 025°06'4 7.8
2017-Aug-14 05:00N 37°31' E 025°10'816.4
2017-Aug-14 04:30N 37°28' E 025°20'0 0.0
2017-Aug-14 04:01N 37°28' E 025°20'0 0.0
2017-Aug-14 03:31N 37°28' E 025°20'0 0.0
2017-Aug-14 03:01N 37°28' E 025°20'0 0.0
2017-Aug-14 02:30N 37°28' E 025°20'0 0.0
2017-Aug-14 02:00N 37°28' E 025°20'0 0.0
2017-Aug-14 01:30N 37°28' E 025°20'0 0.0
2017-Aug-14 01:00N 37°28' E 025°20'0 0.0
2017-Aug-14 00:30N 37°28' E 025°20'0 0.0
2017-Aug-14 00:00N 37°28' E 025°20'0 0.0
2017-Aug-13 23:30N 37°28' E 025°20'0 0.1
2017-Aug-13 23:00N 37°28' E 025°20'815.9
2017-Aug-13 22:31N 37°31' E 025°11'2 3.1
2017-Aug-13 22:01N 37°32' E 025°09'918.9
2017-Aug-13 21:30N 37°37' E 024°59'1019.1
2017-Aug-13 21:00N 37°42' E 024°49'4018.9
2017-Aug-13 18:53N 38°00' E 024°03'2 2.6
2017-Aug-13 18:00N 38°01' E 024°01'816.1
2017-Aug-13 17:29N 37°59' E 024°11'3514.6
2017-Aug-13 15:07N 37°45' E 024°51'218.9
2017-Aug-13 15:00N 37°44' E 024°52'1019.4
2017-Aug-13 14:30N 37°37' E 025°01'815.7
2017-Aug-13 14:00N 37°32' E 025°09'510.7
2017-Aug-13 13:31N 37°29' E 025°15'4 8.1
2017-Aug-13 13:00N 37°28' E 025°20'0 0.0
2017-Aug-13 12:30N 37°28' E 025°20'0 0.0
2017-Aug-13 12:00N 37°28' E 025°20'0 0.0
2017-Aug-13 11:30N 37°28' E 025°20'0 0.0
2017-Aug-13 11:00N 37°28' E 025°20'0 0.0
2017-Aug-13 10:30N 37°28' E 025°20'0 0.0
2017-Aug-13 10:00N 37°28' E 025°20'612.1
2017-Aug-13 09:30N 37°30' E 025°13'3 6.7
2017-Aug-13 09:00N 37°32' E 025°09'918.7
2017-Aug-13 08:31N 37°38' E 024°60'1019.1
2017-Aug-13 08:01N 37°45' E 024°52'3614.8
2017-Aug-13 05:33N 37°60' E 024°10'119.4
2017-Aug-13 05:29N 38°00' E 024°08'6 0.5
2017-Aug-12 18:06N 38°01' E 024°01'110.2
2017-Aug-12 18:00N 38°01' E 024°02'4215.2
2017-Aug-12 15:15N 37°45' E 024°51'519.1
2017-Aug-12 15:00N 37°41' E 024°55'918.5
2017-Aug-12 14:30N 37°35' E 025°03'611.1
2017-Aug-12 14:01N 37°32' E 025°09'816.1
2017-Aug-12 13:30N 37°28' E 025°18'3 6.1
2017-Aug-12 13:00N 37°25' E 025°17'918.5
2017-Aug-12 12:30N 37°16' E 025°19'918.9
2017-Aug-12 12:01N 37°07' E 025°22'1 1.4
2017-Aug-12 11:31N 37°06' E 025°22'714.1
2017-Aug-12 11:01N 37°13' E 025°19'1019.6
2017-Aug-12 10:31N 37°23' E 025°17'511.0
2017-Aug-12 10:01N 37°28' E 025°19'815.6
2017-Aug-12 09:31N 37°31' E 025°10'2 4.5
2017-Aug-12 09:00N 37°32' E 025°08'1019.7
2017-Aug-12 08:30N 37°39' E 024°59'4415.3
2017-Aug-12 05:36N 37°60' E 024°09'218.8
2017-Aug-12 05:29N 38°00' E 024°06'5 0.9
2017-Aug-12 00:21N 38°01' E 024°01'514.0
2017-Aug-12 00:00N 37°60' E 024°06'1119.1
2017-Aug-11 23:26N 37°55' E 024°19'2618.6
2017-Aug-11 22:01N 37°40' E 024°47'018.7
2017-Aug-11 22:00N 37°40' E 024°47'1118.9
2017-Aug-11 21:26N 37°35' E 024°59'818.2
2017-Aug-11 21:00N 37°31' E 025°08'918.7
2017-Aug-11 20:30N 37°28' E 025°19'1 1.3
2017-Aug-11 20:00N 37°28' E 025°19'5 9.1
2017-Aug-11 19:30N 37°30' E 025°14'5 9.3
2017-Aug-11 19:01N 37°32' E 025°09'815.7
2017-Aug-11 18:31N 37°37' E 025°01'1119.4
2017-Aug-11 17:57N 37°45' E 024°52'3714.7
2017-Aug-11 15:24N 37°60' E 024°08'6 4.6
2017-Aug-11 14:01N 38°01' E 024°01'917.8
2017-Aug-11 13:30N 37°57' E 024°11'3318.6
2017-Aug-11 11:43N 37°42' E 024°48'418.9
2017-Aug-11 11:30N 37°40' E 024°52'918.1
2017-Aug-11 11:00N 37°35' E 025°02'612.8
2017-Aug-11 10:30N 37°32' E 025°09'2 4.1
2017-Aug-11 10:00N 37°30' E 025°09'5 9.9
2017-Aug-11 09:30N 37°29' E 025°15'4 7.3
2017-Aug-11 09:01N 37°28' E 025°20'1 2.6
2017-Aug-11 08:30N 37°28' E 025°18'815.9
2017-Aug-11 08:00N 37°32' E 025°09'4 8.0
2017-Aug-11 07:30N 37°34' E 025°05'1019.1
2017-Aug-11 07:00N 37°39' E 024°54'4518.8
2017-Aug-11 04:38N 38°00' E 024°05'3 0.4
2017-Aug-10 19:12N 38°01' E 024°01'316.0
2017-Aug-10 19:00N 38°01' E 024°05'1018.7
2017-Aug-10 18:29N 37°57' E 024°16'3013.8
2017-Aug-10 16:19N 37°45' E 024°51'818.6
2017-Aug-10 15:53N 37°39' E 024°58'617.4
2017-Aug-10 15:30N 37°35' E 025°04'5 9.6
2017-Aug-10 15:00N 37°32' E 025°09'714.4
2017-Aug-10 14:31N 37°28' E 025°17'9 9.5
2017-Aug-10 13:31N 37°19' E 025°18'918.4
2017-Aug-10 13:00N 37°10' E 025°21'4 7.8
2017-Aug-10 12:30N 37°06' E 025°22'815.2
2017-Aug-10 12:01N 37°14' E 025°19'1019.9
2017-Aug-10 11:31N 37°23' E 025°17'  
Track history (hours):
 
Tides and Currents Weather Stations Pressure Air Temp Water Temp Dewpoint Dewpoint Depression Visibility Wind Speed Wind Dir Waves Ship Positions

Theologos P .

Last reported at 2017-Aug-20 11:31 UTC. Time now 2017-Aug-20 11:49 UTC.
Position N 37°28' E 025°20'.

Length 118 m; draft 5 m.

Type: Passenger vessel. MMSI: 240521000.

Date/timePositionNaut miles runAvg speedWind from/ knotsBaromVisibWave heightAir tempDewpointWater temp
2017-Aug-20 11:31N 37°28' E 025°20'0 0.0
2017-Aug-20 11:00N 37°28' E 025°20'0 0.0
2017-Aug-20 10:31N 37°28' E 025°20'0 0.0
2017-Aug-20 10:00N 37°28' E 025°20'4 7.1
2017-Aug-20 09:31N 37°29' E 025°15'611.8
2017-Aug-20 09:00N 37°32' E 025°09'815.2
2017-Aug-20 08:30N 37°36' E 025°01'1019.2
2017-Aug-20 08:00N 37°43' E 024°53'3815.1
2017-Aug-20 05:29N 37°60' E 024°09'7 0.6
2017-Aug-19 18:26N 38°01' E 024°01'716.3
2017-Aug-19 17:59N 37°59' E 024°09'3513.2
2017-Aug-19 15:18N 37°45' E 024°51'818.9
2017-Aug-19 14:52N 37°39' E 024°58'1113.1
2017-Aug-19 14:00N 37°32' E 025°09'715.0
2017-Aug-19 13:31N 37°28' E 025°17'2 3.1
2017-Aug-19 13:00N 37°27' E 025°18'917.9
2017-Aug-19 12:31N 37°18' E 025°18'918.4
2017-Aug-19 12:00N 37°09' E 025°21'3 5.8
2017-Aug-19 11:30N 37°06' E 025°22'4 7.9
2017-Aug-19 11:00N 37°10' E 025°21'1019.6
2017-Aug-19 10:30N 37°20' E 025°18'816.4
2017-Aug-19 10:00N 37°28' E 025°20'4 8.7
2017-Aug-19 09:31N 37°29' E 025°14'510.1
2017-Aug-19 09:01N 37°32' E 025°09'917.4
2017-Aug-19 08:31N 37°37' E 025°00'1019.1
2017-Aug-19 08:01N 37°44' E 024°52'3714.9
2017-Aug-19 05:31N 37°60' E 024°10'018.7
2017-Aug-19 05:30N 37°60' E 024°09'7 1.1
2017-Aug-18 23:33N 38°01' E 024°01'0 1.3
2017-Aug-18 23:30N 38°01' E 024°01'915.6
2017-Aug-18 22:58N 37°57' E 024°10'919.2
2017-Aug-18 22:30N 37°53' E 024°20'2518.6
2017-Aug-18 21:10N 37°41' E 024°47'317.8
2017-Aug-18 21:00N 37°39' E 024°50'918.6
2017-Aug-18 20:30N 37°34' E 025°00'918.7
2017-Aug-18 20:01N 37°30' E 025°11'714.4
2017-Aug-18 19:30N 37°28' E 025°19'1 2.7
2017-Aug-18 19:00N 37°28' E 025°18'815.6
2017-Aug-18 18:31N 37°32' E 025°09'611.9
2017-Aug-18 18:00N 37°35' E 025°03'1118.9
2017-Aug-18 17:25N 37°44' E 024°53'3915.5
2017-Aug-18 14:55N 37°60' E 024°09'7 5.1
2017-Aug-18 13:39N 38°01' E 024°01'212.2
2017-Aug-18 13:31N 38°01' E 024°03'1018.4
2017-Aug-18 12:58N 37°56' E 024°14'3118.5
2017-Aug-18 11:18N 37°41' E 024°48'517.8
2017-Aug-18 11:01N 37°39' E 024°54'918.5
2017-Aug-18 10:31N 37°34' E 025°04'5 9.4
2017-Aug-18 10:00N 37°32' E 025°09'611.6
2017-Aug-18 09:30N 37°29' E 025°15'4 7.3
2017-Aug-18 09:01N 37°28' E 025°20'0 1.0
2017-Aug-18 08:30N 37°28' E 025°19'917.6
2017-Aug-18 08:01N 37°32' E 025°09'4 7.7
2017-Aug-18 07:31N 37°34' E 025°05'1018.9
2017-Aug-18 07:00N 37°38' E 024°54'3819.0
2017-Aug-18 05:00N 37°57' E 024°12'10 1.0
2017-Aug-17 18:55N 38°01' E 024°01'615.3
2017-Aug-17 18:30N 37°59' E 024°08'1319.0
2017-Aug-17 17:50N 37°56' E 024°24'2412.7
2017-Aug-17 15:58N 37°45' E 024°51'918.5
2017-Aug-17 15:28N 37°38' E 024°59'818.5
2017-Aug-17 15:00N 37°33' E 025°07'3 6.8
2017-Aug-17 14:30N 37°31' E 025°11'815.2
2017-Aug-17 14:00N 37°28' E 025°19'510.3
2017-Aug-17 13:30N 37°23' E 025°17'918.1
2017-Aug-17 13:00N 37°14' E 025°19'816.3
2017-Aug-17 12:31N 37°06' E 025°22'1 2.7
2017-Aug-17 12:01N 37°07' E 025°21'1019.8
2017-Aug-17 11:30N 37°17' E 025°19'1019.6
2017-Aug-17 11:01N 37°27' E 025°18'1 3.0
2017-Aug-17 10:30N 37°28' E 025°18'815.8
2017-Aug-17 10:00N 37°32' E 025°09'2 3.5
2017-Aug-17 09:31N 37°32' E 025°07'1017.9
2017-Aug-17 08:57N 37°39' E 024°58'4312.5
2017-Aug-17 05:30N 37°59' E 024°10'7 0.6
2017-Aug-16 18:18N 38°01' E 024°01'413.8
2017-Aug-16 18:01N 38°00' E 024°06'1019.0
2017-Aug-16 17:30N 37°57' E 024°18'3013.8
2017-Aug-16 15:20N 37°44' E 024°52'817.7
2017-Aug-16 14:54N 37°39' E 024°58'718.0
2017-Aug-16 14:30N 37°34' E 025°05'4 7.6
2017-Aug-16 14:00N 37°32' E 025°09'917.4
2017-Aug-16 13:31N 37°28' E 025°19'3 5.7
2017-Aug-16 12:55N 37°25' E 025°17'717.8
2017-Aug-16 12:30N 37°17' E 025°18'917.9
2017-Aug-16 12:00N 37°09' E 025°21'3 5.3
2017-Aug-16 11:30N 37°06' E 025°22'5 9.1
2017-Aug-16 11:01N 37°11' E 025°20'1019.4
2017-Aug-16 10:31N 37°20' E 025°18'815.1
2017-Aug-16 10:00N 37°28' E 025°20'5 9.8
2017-Aug-16 09:30N 37°30' E 025°14'4 9.0
2017-Aug-16 09:01N 37°32' E 025°09'918.4
2017-Aug-16 08:30N 37°38' E 024°60'1019.7
2017-Aug-16 08:00N 37°45' E 024°52'3614.9
2017-Aug-16 05:35N 37°59' E 024°10'219.2
2017-Aug-16 05:29N 37°60' E 024°07'5 0.5
2017-Aug-15 18:18N 38°01' E 024°01'415.2
2017-Aug-15 18:00N 38°00' E 024°06'1019.3
2017-Aug-15 17:30N 37°57' E 024°18'2913.1
2017-Aug-15 15:18N 37°45' E 024°51'618.4
2017-Aug-15 14:59N 37°41' E 024°56'918.7
2017-Aug-15 14:30N 37°35' E 025°04'5 9.4
2017-Aug-15 14:00N 37°32' E 025°09'714.8
2017-Aug-15 13:31N 37°28' E 025°17'1 2.2
2017-Aug-15 13:00N 37°27' E 025°18'917.5
2017-Aug-15 12:30N 37°19' E 025°18'918.0
2017-Aug-15 12:00N 37°10' E 025°21'4 7.3
2017-Aug-15 11:30N 37°06' E 025°22'3 6.4
2017-Aug-15 11:00N 37°09' E 025°21'1019.7
2017-Aug-15 10:30N 37°19' E 025°18'917.7
2017-Aug-15 10:00N 37°28' E 025°19'3 5.1
2017-Aug-15 09:31N 37°29' E 025°16'713.0
2017-Aug-15 09:00N 37°32' E 025°09'713.6
2017-Aug-15 08:30N 37°36' E 025°02'1019.3
2017-Aug-15 08:00N 37°43' E 024°54'3715.4
2017-Aug-15 05:36N 37°59' E 024°11'219.2
2017-Aug-15 05:29N 37°60' E 024°09'7 0.6
2017-Aug-14 17:57N 38°01' E 024°01'817.2
2017-Aug-14 17:28N 37°59' E 024°11'0 0.0
2017-Aug-14 14:00N 37°59' E 024°11'9 1.9
2017-Aug-14 09:29N 38°01' E 024°01'715.1
2017-Aug-14 09:00N 37°59' E 024°09'1018.8
2017-Aug-14 08:29N 37°56' E 024°21'2612.6
2017-Aug-14 06:26N 37°45' E 024°51'1018.7
2017-Aug-14 05:54N 37°38' E 024°60'717.7
2017-Aug-14 05:30N 37°33' E 025°06'4 7.8
2017-Aug-14 05:00N 37°31' E 025°10'816.4
2017-Aug-14 04:30N 37°28' E 025°20'0 0.0
2017-Aug-14 04:01N 37°28' E 025°20'0 0.0
2017-Aug-14 03:31N 37°28' E 025°20'0 0.0
2017-Aug-14 03:01N 37°28' E 025°20'0 0.0
2017-Aug-14 02:30N 37°28' E 025°20'0 0.0
2017-Aug-14 02:00N 37°28' E 025°20'0 0.0
2017-Aug-14 01:30N 37°28' E 025°20'0 0.0
2017-Aug-14 01:00N 37°28' E 025°20'0 0.0
2017-Aug-14 00:30N 37°28' E 025°20'0 0.0
2017-Aug-14 00:00N 37°28' E 025°20'0 0.0
2017-Aug-13 23:30N 37°28' E 025°20'0 0.1
2017-Aug-13 23:00N 37°28' E 025°20'815.9
2017-Aug-13 22:31N 37°31' E 025°11'2 3.1
2017-Aug-13 22:01N 37°32' E 025°09'918.9
2017-Aug-13 21:30N 37°37' E 024°59'1019.1
2017-Aug-13 21:00N 37°42' E 024°49'4018.9
2017-Aug-13 18:53N 38°00' E 024°03'2 2.6
2017-Aug-13 18:00N 38°01' E 024°01'816.1
2017-Aug-13 17:29N 37°59' E 024°11'3514.6
2017-Aug-13 15:07N 37°45' E 024°51'218.9
2017-Aug-13 15:00N 37°44' E 024°52'1019.4
2017-Aug-13 14:30N 37°37' E 025°01'815.7
2017-Aug-13 14:00N 37°32' E 025°09'510.7
2017-Aug-13 13:31N 37°29' E 025°15'4 8.1
2017-Aug-13 13:00N 37°28' E 025°20'0 0.0
2017-Aug-13 12:30N 37°28' E 025°20'0 0.0
2017-Aug-13 12:00N 37°28' E 025°20'0 0.0
2017-Aug-13 11:30N 37°28' E 025°20'0 0.0
2017-Aug-13 11:00N 37°28' E 025°20'0 0.0
2017-Aug-13 10:30N 37°28' E 025°20'0 0.0
2017-Aug-13 10:00N 37°28' E 025°20'612.1
2017-Aug-13 09:30N 37°30' E 025°13'3 6.7
2017-Aug-13 09:00N 37°32' E 025°09'918.7
2017-Aug-13 08:31N 37°38' E 024°60'1019.1
2017-Aug-13 08:01N 37°45' E 024°52'3614.8
2017-Aug-13 05:33N 37°60' E 024°10'119.4
2017-Aug-13 05:29N 38°00' E 024°08'6 0.5
2017-Aug-12 18:06N 38°01' E 024°01'110.2
2017-Aug-12 18:00N 38°01' E 024°02'4215.2
2017-Aug-12 15:15N 37°45' E 024°51'519.1
2017-Aug-12 15:00N 37°41' E 024°55'918.5
2017-Aug-12 14:30N 37°35' E 025°03'611.1
2017-Aug-12 14:01N 37°32' E 025°09'816.1
2017-Aug-12 13:30N 37°28' E 025°18'3 6.1
2017-Aug-12 13:00N 37°25' E 025°17'918.5
2017-Aug-12 12:30N 37°16' E 025°19'918.9
2017-Aug-12 12:01N 37°07' E 025°22'1 1.4
2017-Aug-12 11:31N 37°06' E 025°22'714.1
2017-Aug-12 11:01N 37°13' E 025°19'1019.6
2017-Aug-12 10:31N 37°23' E 025°17'511.0
2017-Aug-12 10:01N 37°28' E 025°19'815.6
2017-Aug-12 09:31N 37°31' E 025°10'2 4.5
2017-Aug-12 09:00N 37°32' E 025°08'1019.7
2017-Aug-12 08:30N 37°39' E 024°59'4415.3
2017-Aug-12 05:36N 37°60' E 024°09'218.8
2017-Aug-12 05:29N 38°00' E 024°06'5 0.9
2017-Aug-12 00:21N 38°01' E 024°01'514.0
2017-Aug-12 00:00N 37°60' E 024°06'1119.1
2017-Aug-11 23:26N 37°55' E 024°19'2618.6
2017-Aug-11 22:01N 37°40' E 024°47'018.7
2017-Aug-11 22:00N 37°40' E 024°47'1118.9
2017-Aug-11 21:26N 37°35' E 024°59'818.2
2017-Aug-11 21:00N 37°31' E 025°08'918.7
2017-Aug-11 20:30N 37°28' E 025°19'1 1.3
2017-Aug-11 20:00N 37°28' E 025°19'5 9.1
2017-Aug-11 19:30N 37°30' E 025°14'5 9.3
2017-Aug-11 19:01N 37°32' E 025°09'815.7
2017-Aug-11 18:31N 37°37' E 025°01'1119.4
2017-Aug-11 17:57N 37°45' E 024°52'3714.7
2017-Aug-11 15:24N 37°60' E 024°08'6 4.6
2017-Aug-11 14:01N 38°01' E 024°01'917.8
2017-Aug-11 13:30N 37°57' E 024°11'3318.6
2017-Aug-11 11:43N 37°42' E 024°48'418.9
2017-Aug-11 11:30N 37°40' E 024°52'918.1
2017-Aug-11 11:00N 37°35' E 025°02'612.8
2017-Aug-11 10:30N 37°32' E 025°09'2 4.1
2017-Aug-11 10:00N 37°30' E 025°09'5 9.9
2017-Aug-11 09:30N 37°29' E 025°15'4 7.3
2017-Aug-11 09:01N 37°28' E 025°20'1 2.6
2017-Aug-11 08:30N 37°28' E 025°18'815.9
2017-Aug-11 08:00N 37°32' E 025°09'4 8.0
2017-Aug-11 07:30N 37°34' E 025°05'1019.1
2017-Aug-11 07:00N 37°39' E 024°54'4518.8
2017-Aug-11 04:38N 38°00' E 024°05'3 0.4
2017-Aug-10 19:12N 38°01' E 024°01'316.0
2017-Aug-10 19:00N 38°01' E 024°05'1018.7
2017-Aug-10 18:29N 37°57' E 024°16'3013.8
2017-Aug-10 16:19N 37°45' E 024°51'818.6
2017-Aug-10 15:53N 37°39' E 024°58'617.4
2017-Aug-10 15:30N 37°35' E 025°04'5 9.6
2017-Aug-10 15:00N 37°32' E 025°09'714.4
2017-Aug-10 14:31N 37°28' E 025°17'9 9.5
2017-Aug-10 13:31N 37°19' E 025°18'918.4
2017-Aug-10 13:00N 37°10' E 025°21'4 7.8
2017-Aug-10 12:30N 37°06' E 025°22'815.2
2017-Aug-10 12:01N 37°14' E 025°19'1019.9
2017-Aug-10 11:31N 37°23' E 025°17'  

Dump ship's entire track history